sensor_id;sensor_type;location;lat;lon;timestamp;temperature;humidity
4520;DHT22;2272;49.226;8.108;2022-08-02T00:00:55;19.20;99.90
4520;DHT22;2272;49.226;8.108;2022-08-02T00:03:22;19.10;99.90
4520;DHT22;2272;49.226;8.108;2022-08-02T00:05:49;19.10;99.90
4520;DHT22;2272;49.226;8.108;2022-08-02T00:08:17;19.00;99.90
4520;DHT22;2272;49.226;8.108;2022-08-02T00:10:43;19.00;99.90
4520;DHT22;2272;49.226;8.108;2022-08-02T00:13:10;19.00;99.90
4520;DHT22;2272;49.226;8.108;2022-08-02T00:15:37;19.00;99.90
4520;DHT22;2272;49.226;8.108;2022-08-02T00:18:04;19.00;99.90
4520;DHT22;2272;49.226;8.108;2022-08-02T00:20:30;19.00;99.90
4520;DHT22;2272;49.226;8.108;2022-08-02T00:22:57;19.00;99.90
4520;DHT22;2272;49.226;8.108;2022-08-02T00:25:25;18.90;99.90
4520;DHT22;2272;49.226;8.108;2022-08-02T00:27:52;18.90;99.90
4520;DHT22;2272;49.226;8.108;2022-08-02T00:30:18;18.90;99.90
4520;DHT22;2272;49.226;8.108;2022-08-02T00:32:45;18.90;99.90
4520;DHT22;2272;49.226;8.108;2022-08-02T00:35:12;18.90;99.90
4520;DHT22;2272;49.226;8.108;2022-08-02T00:37:39;18.90;99.90
4520;DHT22;2272;49.226;8.108;2022-08-02T00:40:07;19.00;99.90
4520;DHT22;2272;49.226;8.108;2022-08-02T00:42:35;19.10;99.90
4520;DHT22;2272;49.226;8.108;2022-08-02T00:45:02;19.20;99.90
4520;DHT22;2272;49.226;8.108;2022-08-02T00:47:29;19.30;99.90
4520;DHT22;2272;49.226;8.108;2022-08-02T00:49:56;19.40;99.90
4520;DHT22;2272;49.226;8.108;2022-08-02T00:52:23;19.40;99.90
4520;DHT22;2272;49.226;8.108;2022-08-02T00:54:50;19.40;99.90
4520;DHT22;2272;49.226;8.108;2022-08-02T00:57:16;19.40;99.90
4520;DHT22;2272;49.226;8.108;2022-08-02T00:59:44;19.50;99.90
4520;DHT22;2272;49.226;8.108;2022-08-02T01:02:11;19.50;99.90
4520;DHT22;2272;49.226;8.108;2022-08-02T01:04:38;19.50;99.90
4520;DHT22;2272;49.226;8.108;2022-08-02T01:07:05;19.50;99.90
4520;DHT22;2272;49.226;8.108;2022-08-02T01:09:31;19.40;99.90
4520;DHT22;2272;49.226;8.108;2022-08-02T01:11:58;19.40;99.90
4520;DHT22;2272;49.226;8.108;2022-08-02T01:14:25;19.40;99.90
4520;DHT22;2272;49.226;8.108;2022-08-02T01:17:02;19.40;99.90
4520;DHT22;2272;49.226;8.108;2022-08-02T01:19:36;19.40;99.90
4520;DHT22;2272;49.226;8.108;2022-08-02T01:22:27;19.40;99.90
4520;DHT22;2272;49.226;8.108;2022-08-02T01:25:19;19.40;99.90
4520;DHT22;2272;49.226;8.108;2022-08-02T01:28:07;19.30;99.90
4520;DHT22;2272;49.226;8.108;2022-08-02T01:30:38;19.30;99.90
4520;DHT22;2272;49.226;8.108;2022-08-02T01:33:07;19.20;99.90
4520;DHT22;2272;49.226;8.108;2022-08-02T01:35:40;19.10;99.90
4520;DHT22;2272;49.226;8.108;2022-08-02T01:38:10;19.10;99.90
4520;DHT22;2272;49.226;8.108;2022-08-02T01:40:41;18.90;99.90
4520;DHT22;2272;49.226;8.108;2022-08-02T01:43:12;18.80;99.90
4520;DHT22;2272;49.226;8.108;2022-08-02T01:45:41;18.70;99.90
4520;DHT22;2272;49.226;8.108;2022-08-02T01:48:09;18.70;99.90
4520;DHT22;2272;49.226;8.108;2022-08-02T01:50:37;18.60;99.90
4520;DHT22;2272;49.226;8.108;2022-08-02T01:53:06;18.60;99.90
4520;DHT22;2272;49.226;8.108;2022-08-02T01:55:38;18.60;99.90
4520;DHT22;2272;49.226;8.108;2022-08-02T01:58:07;18.60;99.90
4520;DHT22;2272;49.226;8.108;2022-08-02T02:00:40;18.50;99.90
4520;DHT22;2272;49.226;8.108;2022-08-02T02:03:11;18.50;99.90
4520;DHT22;2272;49.226;8.108;2022-08-02T02:05:39;18.40;99.90
4520;DHT22;2272;49.226;8.108;2022-08-02T02:08:07;18.30;99.90
4520;DHT22;2272;49.226;8.108;2022-08-02T02:10:37;18.20;99.90
4520;DHT22;2272;49.226;8.108;2022-08-02T02:13:06;18.20;99.90
4520;DHT22;2272;49.226;8.108;2022-08-02T02:15:34;18.10;99.90
4520;DHT22;2272;49.226;8.108;2022-08-02T02:18:07;18.10;99.90
4520;DHT22;2272;49.226;8.108;2022-08-02T02:20:35;18.00;99.90
4520;DHT22;2272;49.226;8.108;2022-08-02T02:23:02;18.00;99.90
4520;DHT22;2272;49.226;8.108;2022-08-02T02:25:29;18.00;99.90
4520;DHT22;2272;49.226;8.108;2022-08-02T02:28:00;18.00;99.90
4520;DHT22;2272;49.226;8.108;2022-08-02T02:30:29;18.00;99.90
4520;DHT22;2272;49.226;8.108;2022-08-02T02:32:58;18.00;99.90
4520;DHT22;2272;49.226;8.108;2022-08-02T02:35:29;18.00;99.90
4520;DHT22;2272;49.226;8.108;2022-08-02T02:37:59;18.00;99.90
4520;DHT22;2272;49.226;8.108;2022-08-02T02:40:28;17.90;99.90
4520;DHT22;2272;49.226;8.108;2022-08-02T02:42:58;18.00;99.90
4520;DHT22;2272;49.226;8.108;2022-08-02T02:45:25;18.00;99.90
4520;DHT22;2272;49.226;8.108;2022-08-02T02:47:54;18.00;99.90
4520;DHT22;2272;49.226;8.108;2022-08-02T02:50:22;18.10;99.90
4520;DHT22;2272;49.226;8.108;2022-08-02T02:52:51;18.10;99.90
4520;DHT22;2272;49.226;8.108;2022-08-02T02:55:18;18.10;99.90
4520;DHT22;2272;49.226;8.108;2022-08-02T02:57:45;18.20;99.90
4520;DHT22;2272;49.226;8.108;2022-08-02T03:00:13;18.30;99.90
4520;DHT22;2272;49.226;8.108;2022-08-02T03:02:42;18.40;99.90
4520;DHT22;2272;49.226;8.108;2022-08-02T03:05:11;18.50;99.90
4520;DHT22;2272;49.226;8.108;2022-08-02T03:07:38;18.50;99.90
4520;DHT22;2272;49.226;8.108;2022-08-02T03:10:08;18.50;99.90
4520;DHT22;2272;49.226;8.108;2022-08-02T03:12:35;18.60;99.90
4520;DHT22;2272;49.226;8.108;2022-08-02T03:15:05;18.60;99.90
4520;DHT22;2272;49.226;8.108;2022-08-02T03:17:42;18.60;99.90
4520;DHT22;2272;49.226;8.108;2022-08-02T03:20:11;18.50;99.90
4520;DHT22;2272;49.226;8.108;2022-08-02T03:22:38;18.40;99.90
4520;DHT22;2272;49.226;8.108;2022-08-02T03:25:07;18.30;99.90
4520;DHT22;2272;49.226;8.108;2022-08-02T03:27:34;18.30;99.90
4520;DHT22;2272;49.226;8.108;2022-08-02T03:30:03;18.20;99.90
4520;DHT22;2272;49.226;8.108;2022-08-02T03:32:30;18.30;99.90
4520;DHT22;2272;49.226;8.108;2022-08-02T03:34:56;18.30;99.90
4520;DHT22;2272;49.226;8.108;2022-08-02T03:37:24;18.30;99.90
4520;DHT22;2272;49.226;8.108;2022-08-02T03:39:52;18.40;99.90
4520;DHT22;2272;49.226;8.108;2022-08-02T03:42:22;18.40;99.90
4520;DHT22;2272;49.226;8.108;2022-08-02T03:44:49;18.40;99.90
4520;DHT22;2272;49.226;8.108;2022-08-02T03:47:17;18.40;99.90
4520;DHT22;2272;49.226;8.108;2022-08-02T03:49:45;18.30;99.90
4520;DHT22;2272;49.226;8.108;2022-08-02T03:52:12;18.30;99.90
4520;DHT22;2272;49.226;8.108;2022-08-02T03:54:39;18.40;99.90
4520;DHT22;2272;49.226;8.108;2022-08-02T03:57:06;18.30;99.90
4520;DHT22;2272;49.226;8.108;2022-08-02T03:59:40;18.30;99.90
4520;DHT22;2272;49.226;8.108;2022-08-02T04:02:07;18.30;99.90
4520;DHT22;2272;49.226;8.108;2022-08-02T04:04:34;18.20;99.90
4520;DHT22;2272;49.226;8.108;2022-08-02T04:07:01;18.20;99.90
4520;DHT22;2272;49.226;8.108;2022-08-02T04:09:28;18.20;99.90
4520;DHT22;2272;49.226;8.108;2022-08-02T04:11:54;18.20;99.90
4520;DHT22;2272;49.226;8.108;2022-08-02T04:14:21;18.20;99.90
4520;DHT22;2272;49.226;8.108;2022-08-02T04:16:52;18.20;99.90
4520;DHT22;2272;49.226;8.108;2022-08-02T04:19:25;18.20;99.90
4520;DHT22;2272;49.226;8.108;2022-08-02T04:21:53;18.20;99.90
4520;DHT22;2272;49.226;8.108;2022-08-02T04:24:25;18.20;99.90
4520;DHT22;2272;49.226;8.108;2022-08-02T04:26:54;18.20;99.90
4520;DHT22;2272;49.226;8.108;2022-08-02T04:29:22;18.30;99.90
4520;DHT22;2272;49.226;8.108;2022-08-02T04:31:51;18.30;99.90
4520;DHT22;2272;49.226;8.108;2022-08-02T04:34:18;18.40;99.90
4520;DHT22;2272;49.226;8.108;2022-08-02T04:36:46;18.40;99.90
4520;DHT22;2272;49.226;8.108;2022-08-02T04:39:13;18.50;99.90
4520;DHT22;2272;49.226;8.108;2022-08-02T04:41:41;18.60;99.90
4520;DHT22;2272;49.226;8.108;2022-08-02T04:44:08;18.70;99.90
4520;DHT22;2272;49.226;8.108;2022-08-02T04:46:35;18.90;99.90
4520;DHT22;2272;49.226;8.108;2022-08-02T04:49:03;19.00;99.90
4520;DHT22;2272;49.226;8.108;2022-08-02T04:51:32;19.10;99.90
4520;DHT22;2272;49.226;8.108;2022-08-02T04:53:59;19.20;99.90
4520;DHT22;2272;49.226;8.108;2022-08-02T04:56:26;19.30;99.90
4520;DHT22;2272;49.226;8.108;2022-08-02T04:58:52;19.30;99.90
4520;DHT22;2272;49.226;8.108;2022-08-02T05:01:19;19.40;99.90
4520;DHT22;2272;49.226;8.108;2022-08-02T05:03:46;19.50;99.90
4520;DHT22;2272;49.226;8.108;2022-08-02T05:06:14;19.60;99.90
4520;DHT22;2272;49.226;8.108;2022-08-02T05:08:41;19.70;99.90
4520;DHT22;2272;49.226;8.108;2022-08-02T05:11:07;19.90;99.90
4520;DHT22;2272;49.226;8.108;2022-08-02T05:13:34;20.20;99.90
4520;DHT22;2272;49.226;8.108;2022-08-02T05:16:01;20.40;99.90
4520;DHT22;2272;49.226;8.108;2022-08-02T05:18:29;20.60;99.90
4520;DHT22;2272;49.226;8.108;2022-08-02T05:20:55;20.80;99.90
4520;DHT22;2272;49.226;8.108;2022-08-02T05:23:23;21.00;99.90
4520;DHT22;2272;49.226;8.108;2022-08-02T05:25:50;21.10;99.90
4520;DHT22;2272;49.226;8.108;2022-08-02T05:28:17;21.20;99.90
4520;DHT22;2272;49.226;8.108;2022-08-02T05:30:44;21.20;99.90
4520;DHT22;2272;49.226;8.108;2022-08-02T05:33:10;21.30;99.90
4520;DHT22;2272;49.226;8.108;2022-08-02T05:35:37;21.30;99.90
4520;DHT22;2272;49.226;8.108;2022-08-02T05:38:04;21.20;99.90
4520;DHT22;2272;49.226;8.108;2022-08-02T05:40:32;21.20;99.90
4520;DHT22;2272;49.226;8.108;2022-08-02T05:42:59;21.20;99.90
4520;DHT22;2272;49.226;8.108;2022-08-02T05:45:26;21.10;99.90
4520;DHT22;2272;49.226;8.108;2022-08-02T05:47:53;21.10;99.90
4520;DHT22;2272;49.226;8.108;2022-08-02T05:50:19;21.10;99.90
4520;DHT22;2272;49.226;8.108;2022-08-02T05:52:50;21.10;99.90
4520;DHT22;2272;49.226;8.108;2022-08-02T05:55:17;21.10;99.90
4520;DHT22;2272;49.226;8.108;2022-08-02T05:57:54;21.30;99.90
4520;DHT22;2272;49.226;8.108;2022-08-02T06:00:22;21.70;99.90
4520;DHT22;2272;49.226;8.108;2022-08-02T06:03:04;22.10;99.90
4520;DHT22;2272;49.226;8.108;2022-08-02T06:05:37;22.30;99.90
4520;DHT22;2272;49.226;8.108;2022-08-02T06:08:06;22.60;99.90
4520;DHT22;2272;49.226;8.108;2022-08-02T06:10:35;22.80;99.90
4520;DHT22;2272;49.226;8.108;2022-08-02T06:13:08;22.90;99.90
4520;DHT22;2272;49.226;8.108;2022-08-02T06:15:35;22.80;99.90
4520;DHT22;2272;49.226;8.108;2022-08-02T06:18:03;22.60;99.90
4520;DHT22;2272;49.226;8.108;2022-08-02T06:20:31;22.60;99.90
4520;DHT22;2272;49.226;8.108;2022-08-02T06:23:01;22.60;99.90
4520;DHT22;2272;49.226;8.108;2022-08-02T06:25:29;22.60;99.90
4520;DHT22;2272;49.226;8.108;2022-08-02T06:27:57;22.60;99.90
4520;DHT22;2272;49.226;8.108;2022-08-02T06:30:26;22.50;99.90
4520;DHT22;2272;49.226;8.108;2022-08-02T06:32:53;22.40;99.90
4520;DHT22;2272;49.226;8.108;2022-08-02T06:35:20;22.40;99.90
4520;DHT22;2272;49.226;8.108;2022-08-02T06:37:50;22.40;99.90
4520;DHT22;2272;49.226;8.108;2022-08-02T06:40:24;22.50;99.90
4520;DHT22;2272;49.226;8.108;2022-08-02T06:43:02;22.60;99.90
4520;DHT22;2272;49.226;8.108;2022-08-02T06:45:32;22.70;99.90
4520;DHT22;2272;49.226;8.108;2022-08-02T06:48:00;22.90;99.90
4520;DHT22;2272;49.226;8.108;2022-08-02T06:50:27;23.00;99.90
4520;DHT22;2272;49.226;8.108;2022-08-02T06:52:53;23.20;99.90
4520;DHT22;2272;49.226;8.108;2022-08-02T06:55:20;23.30;99.90
4520;DHT22;2272;49.226;8.108;2022-08-02T06:57:47;23.40;99.90
4520;DHT22;2272;49.226;8.108;2022-08-02T07:00:14;23.60;99.90
4520;DHT22;2272;49.226;8.108;2022-08-02T07:02:42;23.60;99.90
4520;DHT22;2272;49.226;8.108;2022-08-02T07:05:09;23.70;99.90
4520;DHT22;2272;49.226;8.108;2022-08-02T07:07:36;23.70;99.90
4520;DHT22;2272;49.226;8.108;2022-08-02T07:10:04;23.80;99.90
4520;DHT22;2272;49.226;8.108;2022-08-02T07:12:32;23.80;99.90
4520;DHT22;2272;49.226;8.108;2022-08-02T07:15:00;23.80;99.90
4520;DHT22;2272;49.226;8.108;2022-08-02T07:17:28;23.80;99.90
4520;DHT22;2272;49.226;8.108;2022-08-02T07:19:56;23.90;99.90
4520;DHT22;2272;49.226;8.108;2022-08-02T07:22:24;24.10;99.90
4520;DHT22;2272;49.226;8.108;2022-08-02T07:24:52;24.20;99.90
4520;DHT22;2272;49.226;8.108;2022-08-02T07:27:19;24.20;99.90
4520;DHT22;2272;49.226;8.108;2022-08-02T07:29:46;24.20;99.90
4520;DHT22;2272;49.226;8.108;2022-08-02T07:32:13;24.00;99.90
4520;DHT22;2272;49.226;8.108;2022-08-02T07:34:40;24.00;99.90
4520;DHT22;2272;49.226;8.108;2022-08-02T07:37:08;24.00;99.90
4520;DHT22;2272;49.226;8.108;2022-08-02T07:39:35;23.90;99.90
4520;DHT22;2272;49.226;8.108;2022-08-02T07:42:03;23.80;99.90
4520;DHT22;2272;49.226;8.108;2022-08-02T07:44:29;23.90;99.90
4520;DHT22;2272;49.226;8.108;2022-08-02T07:46:59;24.00;99.90
4520;DHT22;2272;49.226;8.108;2022-08-02T07:49:26;24.20;99.90
4520;DHT22;2272;49.226;8.108;2022-08-02T07:51:53;24.20;99.90
4520;DHT22;2272;49.226;8.108;2022-08-02T07:54:21;24.20;99.90
4520;DHT22;2272;49.226;8.108;2022-08-02T07:56:48;24.20;99.90
4520;DHT22;2272;49.226;8.108;2022-08-02T07:59:17;24.20;99.90
4520;DHT22;2272;49.226;8.108;2022-08-02T08:01:45;24.30;99.90
4520;DHT22;2272;49.226;8.108;2022-08-02T08:04:13;24.40;99.90
4520;DHT22;2272;49.226;8.108;2022-08-02T08:06:40;24.50;99.90
4520;DHT22;2272;49.226;8.108;2022-08-02T08:09:07;24.60;99.90
4520;DHT22;2272;49.226;8.108;2022-08-02T08:11:35;24.70;99.90
4520;DHT22;2272;49.226;8.108;2022-08-02T08:14:02;24.80;99.90
4520;DHT22;2272;49.226;8.108;2022-08-02T08:16:29;24.90;99.90
4520;DHT22;2272;49.226;8.108;2022-08-02T08:18:56;25.20;99.90
4520;DHT22;2272;49.226;8.108;2022-08-02T08:21:23;25.30;99.90
4520;DHT22;2272;49.226;8.108;2022-08-02T08:23:50;25.60;99.40
4520;DHT22;2272;49.226;8.108;2022-08-02T08:26:17;25.80;98.70
4520;DHT22;2272;49.226;8.108;2022-08-02T08:28:45;25.90;98.20
4520;DHT22;2272;49.226;8.108;2022-08-02T08:31:12;26.00;97.90
4520;DHT22;2272;49.226;8.108;2022-08-02T08:33:39;26.20;97.00
4520;DHT22;2272;49.226;8.108;2022-08-02T08:36:06;26.30;94.70
4520;DHT22;2272;49.226;8.108;2022-08-02T08:38:33;26.40;94.00
4520;DHT22;2272;49.226;8.108;2022-08-02T08:41:00;26.40;93.60
4520;DHT22;2272;49.226;8.108;2022-08-02T08:43:27;26.60;92.50
4520;DHT22;2272;49.226;8.108;2022-08-02T08:45:55;26.70;93.00
4520;DHT22;2272;49.226;8.108;2022-08-02T08:48:23;26.80;91.50
4520;DHT22;2272;49.226;8.108;2022-08-02T08:50:53;26.80;92.90
4520;DHT22;2272;49.226;8.108;2022-08-02T08:53:23;26.80;93.20
4520;DHT22;2272;49.226;8.108;2022-08-02T08:55:52;26.90;92.90
4520;DHT22;2272;49.226;8.108;2022-08-02T08:58:21;26.80;91.70
4520;DHT22;2272;49.226;8.108;2022-08-02T09:00:48;26.90;92.30
4520;DHT22;2272;49.226;8.108;2022-08-02T09:03:16;27.00;92.10
4520;DHT22;2272;49.226;8.108;2022-08-02T09:05:43;27.30;92.00
4520;DHT22;2272;49.226;8.108;2022-08-02T09:08:11;27.40;91.60
4520;DHT22;2272;49.226;8.108;2022-08-02T09:10:40;27.50;91.00
4520;DHT22;2272;49.226;8.108;2022-08-02T09:13:13;27.60;90.50
4520;DHT22;2272;49.226;8.108;2022-08-02T09:15:52;27.50;90.50
4520;DHT22;2272;49.226;8.108;2022-08-02T09:18:27;27.60;90.40
4520;DHT22;2272;49.226;8.108;2022-08-02T09:20:55;27.70;90.00
4520;DHT22;2272;49.226;8.108;2022-08-02T09:23:23;27.70;90.00
4520;DHT22;2272;49.226;8.108;2022-08-02T09:25:58;27.80;90.20
4520;DHT22;2272;49.226;8.108;2022-08-02T09:28:26;28.00;89.30
4520;DHT22;2272;49.226;8.108;2022-08-02T09:30:56;28.20;89.70
4520;DHT22;2272;49.226;8.108;2022-08-02T09:33:26;28.30;88.70
4520;DHT22;2272;49.226;8.108;2022-08-02T09:35:59;28.40;86.50
4520;DHT22;2272;49.226;8.108;2022-08-02T09:38:26;28.50;86.30
4520;DHT22;2272;49.226;8.108;2022-08-02T09:40:53;28.60;86.50
4520;DHT22;2272;49.226;8.108;2022-08-02T09:43:20;28.70;85.40
4520;DHT22;2272;49.226;8.108;2022-08-02T09:45:47;28.90;85.30
4520;DHT22;2272;49.226;8.108;2022-08-02T09:48:14;29.10;83.90
4520;DHT22;2272;49.226;8.108;2022-08-02T09:50:43;29.20;82.70
4520;DHT22;2272;49.226;8.108;2022-08-02T09:53:12;28.90;82.40
4520;DHT22;2272;49.226;8.108;2022-08-02T09:55:39;28.80;82.90
4520;DHT22;2272;49.226;8.108;2022-08-02T09:58:16;28.80;82.70
4520;DHT22;2272;49.226;8.108;2022-08-02T10:00:54;28.70;83.20
4520;DHT22;2272;49.226;8.108;2022-08-02T10:03:21;28.70;82.90
4520;DHT22;2272;49.226;8.108;2022-08-02T10:05:50;28.60;82.80
4520;DHT22;2272;49.226;8.108;2022-08-02T10:08:18;28.70;83.40
4520;DHT22;2272;49.226;8.108;2022-08-02T10:10:45;28.70;83.00
4520;DHT22;2272;49.226;8.108;2022-08-02T10:13:12;28.90;83.50
4520;DHT22;2272;49.226;8.108;2022-08-02T10:15:39;29.00;82.70
4520;DHT22;2272;49.226;8.108;2022-08-02T10:18:07;29.20;81.90
4520;DHT22;2272;49.226;8.108;2022-08-02T10:20:39;29.20;82.60
4520;DHT22;2272;49.226;8.108;2022-08-02T10:23:09;29.20;80.30
4520;DHT22;2272;49.226;8.108;2022-08-02T10:25:37;29.20;80.00
4520;DHT22;2272;49.226;8.108;2022-08-02T10:28:05;29.00;79.90
4520;DHT22;2272;49.226;8.108;2022-08-02T10:30:33;29.00;80.00
4520;DHT22;2272;49.226;8.108;2022-08-02T10:33:02;29.30;79.70
4520;DHT22;2272;49.226;8.108;2022-08-02T10:35:32;29.50;79.40
4520;DHT22;2272;49.226;8.108;2022-08-02T10:38:02;29.60;78.60
4520;DHT22;2272;49.226;8.108;2022-08-02T10:40:46;29.80;78.60
4520;DHT22;2272;49.226;8.108;2022-08-02T10:43:46;30.00;77.90
4520;DHT22;2272;49.226;8.108;2022-08-02T10:46:21;30.00;76.20
4520;DHT22;2272;49.226;8.108;2022-08-02T10:49:05;29.70;77.10
4520;DHT22;2272;49.226;8.108;2022-08-02T10:51:55;29.60;77.20
4520;DHT22;2272;49.226;8.108;2022-08-02T10:54:23;29.60;77.50
4520;DHT22;2272;49.226;8.108;2022-08-02T10:56:54;29.70;76.10
4520;DHT22;2272;49.226;8.108;2022-08-02T10:59:26;29.80;75.80
4520;DHT22;2272;49.226;8.108;2022-08-02T11:01:53;29.90;75.10
4520;DHT22;2272;49.226;8.108;2022-08-02T11:04:28;30.10;75.40
4520;DHT22;2272;49.226;8.108;2022-08-02T11:07:09;30.20;74.80
4520;DHT22;2272;49.226;8.108;2022-08-02T11:09:37;30.50;74.60
4520;DHT22;2272;49.226;8.108;2022-08-02T11:12:06;30.70;75.00
4520;DHT22;2272;49.226;8.108;2022-08-02T11:14:36;30.90;73.30
4520;DHT22;2272;49.226;8.108;2022-08-02T11:17:08;31.00;72.70
4520;DHT22;2272;49.226;8.108;2022-08-02T11:20:14;31.20;72.30
4520;DHT22;2272;49.226;8.108;2022-08-02T11:22:43;31.30;71.50
4520;DHT22;2272;49.226;8.108;2022-08-02T11:25:32;31.30;71.50
4520;DHT22;2272;49.226;8.108;2022-08-02T11:28:08;31.20;70.70
4520;DHT22;2272;49.226;8.108;2022-08-02T11:30:36;31.20;69.50
4520;DHT22;2272;49.226;8.108;2022-08-02T11:33:03;31.10;70.00
4520;DHT22;2272;49.226;8.108;2022-08-02T11:35:38;31.30;71.20
4520;DHT22;2272;49.226;8.108;2022-08-02T11:38:12;31.60;69.20
4520;DHT22;2272;49.226;8.108;2022-08-02T11:40:39;31.80;67.50
4520;DHT22;2272;49.226;8.108;2022-08-02T11:43:16;31.90;66.40
4520;DHT22;2272;49.226;8.108;2022-08-02T11:45:43;31.90;67.10
4520;DHT22;2272;49.226;8.108;2022-08-02T11:48:10;32.00;66.50
4520;DHT22;2272;49.226;8.108;2022-08-02T11:50:37;32.10;66.20
4520;DHT22;2272;49.226;8.108;2022-08-02T11:53:12;32.30;64.90
4520;DHT22;2272;49.226;8.108;2022-08-02T11:55:39;32.40;63.90
4520;DHT22;2272;49.226;8.108;2022-08-02T11:58:06;32.50;63.30
4520;DHT22;2272;49.226;8.108;2022-08-02T12:00:37;32.60;63.50
4520;DHT22;2272;49.226;8.108;2022-08-02T12:03:06;32.50;62.80
4520;DHT22;2272;49.226;8.108;2022-08-02T12:05:33;32.30;62.00
4520;DHT22;2272;49.226;8.108;2022-08-02T12:08:05;32.30;62.90
4520;DHT22;2272;49.226;8.108;2022-08-02T12:10:32;32.20;63.60
4520;DHT22;2272;49.226;8.108;2022-08-02T12:13:00;32.10;63.70
4520;DHT22;2272;49.226;8.108;2022-08-02T12:15:32;32.00;63.30
4520;DHT22;2272;49.226;8.108;2022-08-02T12:18:00;32.00;62.70
4520;DHT22;2272;49.226;8.108;2022-08-02T12:20:45;32.10;62.90
4520;DHT22;2272;49.226;8.108;2022-08-02T12:23:11;32.40;62.30
4520;DHT22;2272;49.226;8.108;2022-08-02T12:25:39;32.60;63.20
4520;DHT22;2272;49.226;8.108;2022-08-02T12:28:13;32.90;61.90
4520;DHT22;2272;49.226;8.108;2022-08-02T12:30:52;33.00;61.30
4520;DHT22;2272;49.226;8.108;2022-08-02T12:33:21;33.10;62.00
4520;DHT22;2272;49.226;8.108;2022-08-02T12:35:48;33.40;61.80
4520;DHT22;2272;49.226;8.108;2022-08-02T12:38:16;33.60;60.00
4520;DHT22;2272;49.226;8.108;2022-08-02T12:40:43;33.80;59.70
4520;DHT22;2272;49.226;8.108;2022-08-02T12:43:16;34.10;59.80
4520;DHT22;2272;49.226;8.108;2022-08-02T12:45:48;34.30;59.20
4520;DHT22;2272;49.226;8.108;2022-08-02T12:48:16;34.40;58.10
4520;DHT22;2272;49.226;8.108;2022-08-02T12:50:56;34.30;59.20
4520;DHT22;2272;49.226;8.108;2022-08-02T12:53:30;34.30;57.80
4520;DHT22;2272;49.226;8.108;2022-08-02T12:55:57;33.90;58.30
4520;DHT22;2272;49.226;8.108;2022-08-02T12:58:24;33.50;59.20
4520;DHT22;2272;49.226;8.108;2022-08-02T13:00:52;33.20;59.70
4520;DHT22;2272;49.226;8.108;2022-08-02T13:03:19;33.00;59.60
4520;DHT22;2272;49.226;8.108;2022-08-02T13:05:46;32.90;59.90
4520;DHT22;2272;49.226;8.108;2022-08-02T13:08:14;32.70;60.90
4520;DHT22;2272;49.226;8.108;2022-08-02T13:10:41;32.80;60.80
4520;DHT22;2272;49.226;8.108;2022-08-02T13:13:08;32.90;60.00
4520;DHT22;2272;49.226;8.108;2022-08-02T13:15:35;32.70;60.30
4520;DHT22;2272;49.226;8.108;2022-08-02T13:18:02;32.70;60.80
4520;DHT22;2272;49.226;8.108;2022-08-02T13:20:29;32.70;60.30
4520;DHT22;2272;49.226;8.108;2022-08-02T13:22:56;32.70;60.10
4520;DHT22;2272;49.226;8.108;2022-08-02T13:25:24;32.90;60.10
4520;DHT22;2272;49.226;8.108;2022-08-02T13:27:51;33.20;60.00
4520;DHT22;2272;49.226;8.108;2022-08-02T13:30:18;33.40;60.00
4520;DHT22;2272;49.226;8.108;2022-08-02T13:32:44;33.30;59.30
4520;DHT22;2272;49.226;8.108;2022-08-02T13:35:11;33.10;59.70
4520;DHT22;2272;49.226;8.108;2022-08-02T13:37:39;33.00;59.80
4520;DHT22;2272;49.226;8.108;2022-08-02T13:40:08;33.10;60.80
4520;DHT22;2272;49.226;8.108;2022-08-02T13:42:36;33.30;59.40
4520;DHT22;2272;49.226;8.108;2022-08-02T13:45:03;33.40;59.80
4520;DHT22;2272;49.226;8.108;2022-08-02T13:47:30;33.50;58.80
4520;DHT22;2272;49.226;8.108;2022-08-02T13:49:57;33.60;59.00
4520;DHT22;2272;49.226;8.108;2022-08-02T13:52:24;33.60;58.40
4520;DHT22;2272;49.226;8.108;2022-08-02T13:54:50;33.40;58.70
4520;DHT22;2272;49.226;8.108;2022-08-02T13:57:17;33.40;59.20
4520;DHT22;2272;49.226;8.108;2022-08-02T13:59:45;33.50;59.00
4520;DHT22;2272;49.226;8.108;2022-08-02T14:02:12;33.40;59.30
4520;DHT22;2272;49.226;8.108;2022-08-02T14:04:39;33.50;59.90
4520;DHT22;2272;49.226;8.108;2022-08-02T14:07:06;33.80;58.80
4520;DHT22;2272;49.226;8.108;2022-08-02T14:09:32;34.10;58.00
4520;DHT22;2272;49.226;8.108;2022-08-02T14:12:00;34.10;58.30
4520;DHT22;2272;49.226;8.108;2022-08-02T14:14:27;34.00;57.30
4520;DHT22;2272;49.226;8.108;2022-08-02T14:16:56;33.80;57.80
4520;DHT22;2272;49.226;8.108;2022-08-02T14:19:23;33.60;57.60
4520;DHT22;2272;49.226;8.108;2022-08-02T14:21:50;33.30;57.40
4520;DHT22;2272;49.226;8.108;2022-08-02T14:24:18;32.90;58.50
4520;DHT22;2272;49.226;8.108;2022-08-02T14:26:52;33.00;59.00
4520;DHT22;2272;49.226;8.108;2022-08-02T14:29:19;33.20;58.40
4520;DHT22;2272;49.226;8.108;2022-08-02T14:31:46;33.50;58.30
4520;DHT22;2272;49.226;8.108;2022-08-02T14:34:14;33.90;57.80
4520;DHT22;2272;49.226;8.108;2022-08-02T14:36:40;34.00;57.40
4520;DHT22;2272;49.226;8.108;2022-08-02T14:39:07;34.20;57.60
4520;DHT22;2272;49.226;8.108;2022-08-02T14:41:34;34.40;57.20
4520;DHT22;2272;49.226;8.108;2022-08-02T14:44:02;34.50;56.80
4520;DHT22;2272;49.226;8.108;2022-08-02T14:46:34;34.50;56.70
4520;DHT22;2272;49.226;8.108;2022-08-02T14:49:02;34.50;57.10
4520;DHT22;2272;49.226;8.108;2022-08-02T14:51:30;34.50;56.70
4520;DHT22;2272;49.226;8.108;2022-08-02T14:53:57;34.50;56.20
4520;DHT22;2272;49.226;8.108;2022-08-02T14:56:24;34.40;55.40
4520;DHT22;2272;49.226;8.108;2022-08-02T14:58:51;33.90;56.00
4520;DHT22;2272;49.226;8.108;2022-08-02T15:01:18;33.50;56.90
4520;DHT22;2272;49.226;8.108;2022-08-02T15:03:45;33.50;57.30
4520;DHT22;2272;49.226;8.108;2022-08-02T15:06:12;33.60;56.80
4520;DHT22;2272;49.226;8.108;2022-08-02T15:08:40;33.70;56.70
4520;DHT22;2272;49.226;8.108;2022-08-02T15:11:07;33.80;57.00
4520;DHT22;2272;49.226;8.108;2022-08-02T15:13:34;33.90;56.70
4520;DHT22;2272;49.226;8.108;2022-08-02T15:16:01;34.10;56.80
4520;DHT22;2272;49.226;8.108;2022-08-02T15:18:28;34.30;56.60
4520;DHT22;2272;49.226;8.108;2022-08-02T15:20:55;34.40;56.50
4520;DHT22;2272;49.226;8.108;2022-08-02T15:23:22;34.50;56.40
4520;DHT22;2272;49.226;8.108;2022-08-02T15:25:51;34.50;56.20
4520;DHT22;2272;49.226;8.108;2022-08-02T15:28:18;34.50;56.10
4520;DHT22;2272;49.226;8.108;2022-08-02T15:30:45;34.50;56.30
4520;DHT22;2272;49.226;8.108;2022-08-02T15:33:11;34.50;56.30
4520;DHT22;2272;49.226;8.108;2022-08-02T15:35:38;34.20;56.40
4520;DHT22;2272;49.226;8.108;2022-08-02T15:38:05;34.00;56.80
4520;DHT22;2272;49.226;8.108;2022-08-02T15:40:32;33.90;56.90
4520;DHT22;2272;49.226;8.108;2022-08-02T15:43:00;33.80;56.90
4520;DHT22;2272;49.226;8.108;2022-08-02T15:45:27;33.70;56.80
4520;DHT22;2272;49.226;8.108;2022-08-02T15:47:54;33.70;57.20
4520;DHT22;2272;49.226;8.108;2022-08-02T15:50:21;33.90;57.10
4520;DHT22;2272;49.226;8.108;2022-08-02T15:52:47;34.00;56.90
4520;DHT22;2272;49.226;8.108;2022-08-02T15:55:14;34.10;56.30
4520;DHT22;2272;49.226;8.108;2022-08-02T15:57:41;34.20;56.30
4520;DHT22;2272;49.226;8.108;2022-08-02T16:00:11;34.30;56.60
4520;DHT22;2272;49.226;8.108;2022-08-02T16:02:38;34.30;56.00
4520;DHT22;2272;49.226;8.108;2022-08-02T16:05:05;34.30;56.00
4520;DHT22;2272;49.226;8.108;2022-08-02T16:07:32;34.20;55.80
4520;DHT22;2272;49.226;8.108;2022-08-02T16:09:59;34.10;56.10
4520;DHT22;2272;49.226;8.108;2022-08-02T16:12:26;34.10;56.00